Terminal Aerodrome Forecast
Issued by NWS Detroit/Pontiac, MI

Home | Current Version | Previous Version | Text Only | Print | Product List | Glossary On
Versions: 1 2 3 4 5 6 7 8 9 10 11 12 13 14 15 16 17 18 19 20 21 22 23 24
523
FTUS43 KDTX 240903 AAA
TAFDTW
TAF AMD
KDTW 240903Z 2409/2512 16005KT P6SM -SHRA OVC040
      TEMPO 2409/2413 5SM -RA OVC025
     FM241300 12008KT 5SM -RA BR OVC025
     FM241700 11008KT 4SM -RA BR OVC015
     FM242200 10006KT 3SM -RA BR OVC008
     FM250800 34004KT P6SM SCT015 BKN025=

USA.gov is the U.S. government's official web portal to all federal, state and local government web resources and services.